Data for 08/21/2010

Time Sea-Level Adjusted Pressure Absolute Pressure Temperature Relative Humidity Dew Point   
(mb) (inHg) (mb) (inHg) (C) (F) (%) (C) (F)
00:05 1015 29.97 844 24.92 17.5 63.6 36 2.6 36.7
00:10 1015 29.97 844 24.92 16.9 62.5 37 2.3 36.2
00:15 1015 29.97 844 24.92 16.7 62 38 2.5 36.5
00:20 1015 29.97 844 24.92 16.3 61.4 41 3.2 37.8
00:25 1015 29.97 844 24.92 16 60.8 39 2.3 36.2
00:30 1015 29.97 844 24.92 16.6 61.8 36 1.5 34.7
00:35 1015 29.97 844 24.92 16.8 62.2 36 1.8 35.2
00:40 1015 29.97 844 24.92 16.7 62.1 38 2.4 36.4
00:45 1015 29.97 844 24.92 16.2 61.1 42 3.3 38
00:50 1015 29.97 845 24.95 15.5 59.9 42 2.6 36.7
00:55 1015 29.97 845 24.95 15.3 59.6 42 2.5 36.5
01:00 1015 29.97 845 24.95 15.4 59.6 41 2.2 35.9
01:05 1015 29.97 845 24.95 15.4 59.7 41 2.4 36.2
01:10 1015 29.97 845 24.95 15.4 59.8 41 2.3 36.2
01:15 1015 29.97 845 24.95 15.3 59.6 40 1.8 35.2
01:20 1015 29.97 845 24.95 15.4 59.7 41 2.2 36
01:25 1015 29.97 845 24.95 15.3 59.5 40 2 35.6
01:30 1015 29.97 845 24.95 15.1 59.1 42 2.5 36.4
01:35 1015 29.97 845 24.95 15 59 46 3.5 38.2
01:40 1015 29.97 845 24.95 14.8 58.7 44 2.8 37
01:45 1015 29.97 845 24.95 14.4 57.9 46 3 37.4
01:50 1015 29.97 845 24.95 13.9 57.1 44 2.1 35.8
01:55 1015 29.97 845 24.95 13.9 57.1 47 2.8 37.1
02:00 1015 29.97 845 24.95 13.6 56.4 47 2.5 36.5
02:05 1015 29.97 845 24.95 13.5 56.3 46 2.1 35.8
02:10 1015 29.97 845 24.95 13.7 56.6 45 1.9 35.4
02:15 1015 29.97 845 24.95 13.9 57 43 1.7 35.1
02:20 1015 29.97 845 24.95 13.9 57 45 2.1 35.8
02:25 1015 29.97 845 24.95 13.6 56.4 45 2 35.6
02:30 1015 29.97 845 24.95 13.5 56.2 45 1.7 35
02:35 1015 29.97 845 24.95 13.5 56.4 45 1.8 35.2
02:40 1015 29.97 845 24.95 13.5 56.3 45 1.9 35.3
02:45 1015 29.97 845 24.95 13.4 56.1 45 1.7 35
02:50 1015 29.97 845 24.95 13.4 56 45 1.8 35.2
02:55 1015 29.97 845 24.95 13.3 56 46 2 35.5
03:00 1015 29.97 845 24.95 13.2 55.8 45 1.6 34.8
03:05 1015 29.97 845 24.95 13.2 55.8 44 1.4 34.5
03:10 1015 29.97 845 24.95 13.4 56.2 43 1.1 34
03:15 1015 29.97 845 24.95 13.6 56.4 41 0.5 32.9
03:20 1015 29.97 845 24.95 13.7 56.7 40 0.4 32.8
03:25 1015 29.97 845 24.95 13.7 56.7 40 0.3 32.5
03:30 1015 29.97 845 24.95 13.8 56.9 40 0.4 32.7
03:35 1015 29.97 845 24.95 13.8 56.8 40 0.4 32.7
03:40 1015 29.97 845 24.95 13.9 57 38 0 32
03:45 1015 29.97 845 24.95 14 57.2 38 -0.1 31.8
03:50 1015 29.97 845 24.95 14.1 57.4 38 -0.1 31.9
03:55 1015 29.97 845 24.95 14 57.2 38 0.1 32.2
04:00 1015 29.97 845 24.95 13.9 57 40 0.4 32.8
04:05 1015 29.97 845 24.95 13.6 56.5 41 0.6 33
04:10 1016 30 845 24.95 13.1 55.7 42 0.7 33.3
04:15 1016 30 845 24.95 12.9 55.3 41 0 32.1
04:20 1016 30 845 24.95 13.3 56 40 0 32
04:25 1015 29.97 845 24.95 13.5 56.3 40 0.1 32.3
04:30 1016 30 845 24.95 13.5 56.2 39 -0.2 31.7
04:35 1016 30 845 24.95 13.5 56.3 38 -0.7 30.8
04:40 1016 30 845 24.95 13.2 55.7 39 -0.3 31.4
04:45 1016 30 845 24.95 13.1 55.5 38 -0.8 30.5
04:50 1016 30 845 24.95 13.1 55.5 42 0.4 32.7
04:55 1016 30 845 24.95 12.2 54 44 0.5 32.9
05:00 1016 30 845 24.95 12 53.6 44 0.2 32.3
05:05 1016 30 845 24.95 12.3 54.1 41 -0.6 31
05:10 1016 30 845 24.95 12.5 54.4 42 -0 32
05:15 1016 30 845 24.95 12.4 54.2 43 0.1 32.1
05:20 1016 30 845 24.95 12.3 54.1 42 -0.1 31.7
05:25 1016 30 845 24.95 12.4 54.2 40 -0.7 30.8
05:30 1016 30 845 24.95 12.7 54.9 39 -0.9 30.4
05:35 1016 30 845 24.95 12.8 55.1 40 -0.5 31.2
05:40 1016 30 845 24.95 12.8 55.1 39 -0.6 30.9
05:45 1016 30 845 24.95 12.7 54.8 42 0 32
05:50 1016 30 845 24.95 12.3 54.1 40 -0.7 30.8
05:55 1016 30 845 24.95 12.6 54.6 40 -0.6 30.9
06:00 1016 30 845 24.95 12.7 54.9 39 -0.7 30.8
06:05 1016 30 845 24.95 12.9 55.1 39 -0.7 30.7
06:10 1016 30 845 24.95 12.8 55 40 -0.5 31.2
06:15 1016 30 845 24.95 12.7 54.9 41 -0.2 31.7
06:20 1016 30 845 24.95 12.5 54.6 41 -0.2 31.6
06:25 1016 30 845 24.95 12.3 54.2 42 -0.3 31.5
06:30 1016 30 845 24.95 12.3 54.2 40 -0.7 30.8
06:35 1016 30 845 24.95 12.9 55.2 42 0.3 32.6
06:40 1016 30 845 24.95 12.4 54.3 44 0.4 32.8
06:45 1016 30 845 24.95 12 53.7 45 0.6 33
06:50 1016 30 845 24.95 12.1 53.9 44 0.4 32.8
06:55 1016 30 845 24.95 12.3 54.2 41 -0.5 31.1
07:00 1016 30 845 24.95 12.5 54.5 42 -0.1 31.9
07:05 1016 30 845 24.95 12.4 54.3 42 -0 32
07:10 1016 30 845 24.95 12.4 54.3 41 -0.3 31.4
07:15 1016 30 845 24.95 12.6 54.7 40 -0.7 30.8
07:20 1016 30 845 24.95 13.1 55.5 42 0.5 32.9
07:25 1016 30 845 24.95 13.1 55.5 40 -0.2 31.6
07:30 1016 30 845 24.95 13.5 56.2 38 -0.3 31.4
07:35 1016 30 845 24.95 13.6 56.6 40 0.2 32.4
07:40 1016 30 845 24.95 13.7 56.6 38 -0.4 31.3
07:45 1016 30 846 24.98 13.7 56.7 39 0.2 32.3
07:50 1016 30 846 24.98 13.8 56.8 40 0.5 32.9
07:55 1016 30 846 24.98 14.1 57.4 38 0.1 32.2
08:00 1016 30 846 24.98 14.6 58.2 37 0.1 32.2
08:05 1016 30 846 24.98 14.7 58.4 38 0.5 32.9
08:10 1016 30 846 24.98 14.9 58.9 38 1 33.8
08:15 1016 30 846 24.98 15 59 40 1.6 34.9
08:20 1016 30 846 24.98 15.1 59.2 39 1.4 34.5
08:25 1016 30 846 24.98 15 59.1 41 2.1 35.7
08:30 1016 30 846 24.98 15.3 59.6 41 2.3 36.1
08:35 1016 30 846 24.98 15.3 59.6 40 2 35.7
08:40 1016 30 846 24.98 15.5 59.9 39 1.8 35.2
08:45 1017 30.03 846 24.98 16.1 61 37 1.5 34.7
08:50 1017 30.03 846 24.98 16.7 62 34 0.9 33.6
08:55 1017 30.03 846 24.98 16.9 62.4 35 1.5 34.7
09:00 1017 30.03 846 24.98 17.2 62.9 38 3 37.4
09:05 1017 30.03 846 24.98 17.8 64 33 1.5 34.6
09:10 1017 30.03 846 24.98 18.3 64.9 33 1.7 35.1
09:15 1017 30.03 846 24.98 18.6 65.5 30 1.1 33.9
09:20 1017 30.03 846 24.98 18.5 65.3 30 0.5 32.9
09:25 1017 30.03 846 24.98 18.8 65.8 30 0.9 33.6
09:30 1017 30.03 846 24.98 19.2 66.6 29 0.7 33.3
09:35 1017 30.03 846 24.98 19.9 67.8 27 0.3 32.6
09:40 1017 30.03 846 24.98 20.3 68.6 26 0.5 32.9
09:45 1017 30.03 846 24.98 20 67.9 27 0.8 33.4
09:50 1017 30.03 846 24.98 20.5 68.9 26 0.6 33.1
09:55 1017 30.03 846 24.98 21 69.8 27 1.4 34.6
10:00 1017 30.03 846 24.98 20.9 69.6 28 2.1 35.8
10:05 1017 30.03 846 24.98 21 69.9 28 2.2 35.9
10:10 1017 30.03 846 24.98 21.1 69.9 28 2.1 35.8
10:15 1017 30.03 846 24.98 21.6 70.8 27 1.9 35.5
10:20 1017 30.03 846 24.98 22.2 71.9 27 2.6 36.6
10:25 1017 30.03 846 24.98 22.6 72.6 26 2.5 36.5
10:30 1017 30.03 846 24.98 22.6 72.7 27 2.7 36.8
10:35 1017 30.03 846 24.98 22.9 73.2 26 2.6 36.6
10:40 1017 30.03 846 24.98 23.2 73.8 26 2.7 36.8
10:45 1017 30.03 846 24.98 22.6 72.6 26 2.5 36.5
10:50 1017 30.03 846 24.98 21.9 71.4 28 2.7 36.9
10:55 1017 30.03 846 24.98 21.2 70.2 28 2.1 35.7
11:00 1017 30.03 846 24.98 22.6 72.6 25 1.9 35.4
11:05 1017 30.03 846 24.98 22.5 72.4 27 2.8 37.1
11:10 1017 30.03 846 24.98 22.2 72 26 1.9 35.3
11:15 1017 30.03 846 24.98 22.9 73.1 24 1.6 34.8
11:20 1016 30 846 24.98 22.9 73.1 27 2.9 37.1
11:25 1016 30 846 24.98 23 73.3 27 3 37.4
11:30 1016 30 846 24.98 23.3 73.9 23 1 33.7
11:35 1016 30 846 24.98 23.2 73.8 22 0.3 32.5
11:40 1016 30 846 24.98 23.1 73.6 23 0.8 33.4
11:45 1016 30 846 24.98 24 75.2 20 0.2 32.3
11:50 1016 30 846 24.98 24.9 76.8 19 -0.4 31.2
11:55 1016 30 846 24.98 24.9 76.8 20 0.6 33.1
12:00 1016 30 845 24.95 25 77 19 0.1 32.2
12:05 1016 30 845 24.95 24.4 75.8 19 -0.2 31.6
12:10 1016 30 845 24.95 24.4 75.9 20 0 32
12:15 1016 30 845 24.95 25.6 78.2 17 -1 30.2
12:20 1016 30 845 24.95 26.3 79.3 17 -0.1 31.9
12:25 1016 30 845 24.95 26.2 79.2 16 -1.4 29.5
12:30 1016 30 845 24.95 25.1 77.2 19 0 32
12:35 1016 30 845 24.95 25.7 78.3 18 0 32
12:40 1016 30 845 24.95 25.9 78.5 17 -0.8 30.5
12:45 1016 30 845 24.95 25.2 77.4 18 -0.8 30.6
12:50 1016 30 845 24.95 25.6 78.1 15 -2.7 27.2
12:55 1015 29.97 845 24.95 25.5 77.9 17 -1.4 29.4
13:00 1015 29.97 845 24.95 25.6 78 15 -3.1 26.4
13:05 1015 29.97 845 24.95 26.1 79 15 -2.4 27.6
13:10 1015 29.97 845 24.95 26.8 80.3 14 -2.3 27.9
13:15 1015 29.97 844 24.92 26 78.7 17 -0.8 30.5
13:20 1015 29.97 844 24.92 26.8 80.2 15 -2.1 28.2
13:25 1015 29.97 844 24.92 26.6 79.8 15 -2.1 28.2
13:30 1015 29.97 844 24.92 26.6 79.9 14 -2.5 27.6
13:35 1015 29.97 844 24.92 27.3 81.2 15 -1.3 29.6
13:40 1015 29.97 844 24.92 27.2 81 13 -3.3 26
13:45 1015 29.97 844 24.92 26.8 80.2 13 -3.6 25.5
13:50 1015 29.97 844 24.92 26.8 80.2 13 -3.7 25.3
13:55 1015 29.97 844 24.92 27 80.6 13 -3.9 24.9
14:00 1015 29.97 844 24.92 27.2 80.9 13 -3 26.6
14:05 1015 29.97 844 24.92 27.7 81.9 13 -2.4 27.7
14:10 1015 29.97 844 24.92 27.2 81 14 -2 28.5
14:15 1015 29.97 844 24.92 28 82.3 13 -3 26.6
14:20 1015 29.97 844 24.92 27.9 82.3 13 -3.1 26.4
14:25 1015 29.97 844 24.92 27.9 82.3 13 -2.5 27.5
14:30 1015 29.97 844 24.92 27.7 81.9 13 -2.8 27
14:35 1014 29.94 844 24.92 27.7 81.8 14 -2.3 27.8
14:40 1014 29.94 844 24.92 27.7 81.9 14 -2 28.3
14:45 1014 29.94 844 24.92 28.1 82.7 13 -2.2 28.1
14:50 1014 29.94 844 24.92 28.1 82.6 13 -2.3 27.9
14:55 1014 29.94 843 24.89 27.8 82.1 14 -1.9 28.6
15:00 1014 29.94 843 24.89 28.2 82.7 14 -1.7 28.9
15:05 1014 29.94 843 24.89 28.7 83.7 14 -1.4 29.4
15:10 1014 29.94 843 24.89 28.4 83.1 15 -0.7 30.7
15:15 1014 29.94 843 24.89 27.4 81.3 17 0.2 32.4
15:20 1014 29.94 843 24.89 27.4 81.4 15 -1.2 29.8
15:25 1014 29.94 843 24.89 28.3 82.9 16 0.4 32.8
15:30 1014 29.94 843 24.89 28.8 83.9 15 -0.4 31.2
15:35 1014 29.94 843 24.89 29.3 84.7 14 -0.6 30.9
15:40 1014 29.94 843 24.89 29.1 84.3 14 -0.9 30.4
15:45 1014 29.94 843 24.89 28.1 82.6 14 -1.2 29.8
15:50 1014 29.94 843 24.89 28.5 83.4 14 -0.9 30.3
15:55 1014 29.94 843 24.89 28.2 82.7 15 -0.4 31.3
16:00 1014 29.94 843 24.89 28.4 83.1 15 -0.6 30.9
16:05 1014 29.94 843 24.89 28.1 82.6 15 -0.7 30.7
16:10 1014 29.94 843 24.89 27.4 81.3 15 -1.1 30
16:15 1014 29.94 843 24.89 27.3 81.2 15 -1.2 29.9
16:20 1014 29.94 843 24.89 27.7 81.9 15 -1.1 30.1
16:25 1014 29.94 843 24.89 27.7 81.8 14 -1.9 28.6
16:30 1014 29.94 843 24.89 28.2 82.7 14 -1.1 30
16:35 1014 29.94 843 24.89 28.2 82.8 14 -1.7 29
16:40 1014 29.94 843 24.89 28.5 83.3 14 -1.2 29.9
16:45 1014 29.94 843 24.89 28.7 83.6 13 -2.3 27.8
16:50 1014 29.94 843 24.89 29.4 85 13 -1.6 29.1
16:55 1014 29.94 843 24.89 29.4 84.9 13 -1.7 29
17:00 1013 29.91 843 24.89 29.2 84.5 13 -2.1 28.3
17:05 1013 29.91 843 24.89 29.1 84.4 13 -1.7 28.9
17:10 1013 29.91 843 24.89 29.7 85.4 12 -1.9 28.5
17:15 1013 29.91 843 24.89 30.1 86.2 12 -1.8 28.7
17:20 1013 29.91 842 24.86 30 86 13 -1.4 29.5
17:25 1013 29.91 842 24.86 30.2 86.4 12 -1.9 28.6
17:30 1013 29.91 842 24.86 30.4 86.6 13 -1.2 29.9
17:35 1013 29.91 842 24.86 30.2 86.3 13 -1.3 29.7
17:40 1013 29.91 842 24.86 30 85.9 13 -1.4 29.4
17:45 1013 29.91 842 24.86 29.7 85.4 13 -1.8 28.8
17:50 1013 29.91 842 24.86 29.9 85.8 13 -1.5 29.4
17:55 1013 29.91 842 24.86 29.6 85.2 14 -0.7 30.7
18:00 1013 29.91 842 24.86 29.1 84.4 14 -1.2 29.8
18:05 1013 29.91 842 24.86 28.7 83.7 14 -1.4 29.5
18:10 1013 29.91 842 24.86 27.9 82.2 14 -2.1 28.1
18:15 1013 29.91 842 24.86 28.3 82.9 14 -1.6 29.2
18:20 1013 29.91 842 24.86 29.2 84.5 13 -1.3 29.7
18:25 1013 29.91 842 24.86 29.4 84.8 14 -1 30.2
18:30 1013 29.91 842 24.86 29.4 84.9 13 -1.5 29.3
18:35 1013 29.91 842 24.86 29.6 85.4 14 -0.6 30.9
18:40 1013 29.91 842 24.86 29.8 85.7 14 -0.6 30.9
18:45 1013 29.91 842 24.86 29.4 84.8 15 -0 31.9
18:50 1013 29.91 842 24.86 28.8 83.9 16 0.8 33.5
18:55 1013 29.91 842 24.86 28.6 83.4 16 0.2 32.4
19:00 1013 29.91 842 24.86 28.5 83.2 16 0.4 32.7
19:05 1013 29.91 842 24.86 28.3 82.9 17 1.5 34.7
19:10 1013 29.91 842 24.86 28.1 82.5 18 1.8 35.3
19:15 1013 29.91 842 24.86 27.9 82.2 18 1.7 35
19:20 1013 29.91 842 24.86 27.7 81.9 18 1.8 35.2
19:25 1013 29.91 842 24.86 27.4 81.2 18 1.5 34.7
19:30 1013 29.91 842 24.86 27 80.5 19 1.4 34.4
19:35 1013 29.91 842 24.86 26.9 80.4 19 1.5 34.7
19:40 1013 29.91 842 24.86 26.6 79.9 19 1.4 34.5
19:45 1013 29.91 842 24.86 26.7 80 18 1 33.8
19:50 1013 29.91 842 24.86 26.6 79.8 23 3.8 38.8
19:55 1013 29.91 842 24.86 25.8 78.4 22 2.9 37.3
20:00 1013 29.91 843 24.89 25.6 78.1 22 2.3 36.2
20:05 1013 29.91 843 24.89 25.6 78.1 23 2.9 37.3
20:10 1013 29.91 843 24.89 25.3 77.6 23 2.9 37.2
20:15 1013 29.91 843 24.89 25 77 24 3.2 37.8
20:20 1013 29.91 843 24.89 24.5 76.2 26 4 39.1
20:25 1013 29.91 843 24.89 24.2 75.5 25 3.4 38
20:30 1013 29.91 843 24.89 24 75.1 26 3.3 37.9
20:35 1013 29.91 843 24.89 23.8 74.9 25 2.6 36.7
20:40 1013 29.91 843 24.89 23.6 74.4 27 3.6 38.4
20:45 1013 29.91 843 24.89 23.4 74.1 25 2.2 36
20:50 1013 29.91 843 24.89 23.3 73.9 24 1.7 35.1
20:55 1014 29.94 843 24.89 23.1 73.5 25 2.2 36
21:00 1014 29.94 843 24.89 22.8 73 25 1.7 35
21:05 1014 29.94 843 24.89 22.5 72.5 25 1.7 35.1
21:10 1014 29.94 843 24.89 22.2 71.9 25 1.4 34.5
21:15 1014 29.94 843 24.89 22.1 71.7 26 1.6 35
21:20 1014 29.94 843 24.89 21.9 71.4 26 1.9 35.4
21:25 1014 29.94 843 24.89 21.3 70.3 30 3.2 37.8
21:30 1014 29.94 843 24.89 20.4 68.7 30 2.4 36.3
21:35 1014 29.94 843 24.89 20.5 68.8 28 1.4 34.6
21:40 1014 29.94 843 24.89 20.6 69 29 1.9 35.5
21:45 1014 29.94 843 24.89 20.4 68.7 28 1.3 34.4
21:50 1014 29.94 843 24.89 20.6 69.2 27 0.9 33.6
21:55 1014 29.94 843 24.89 21.2 70.1 26 1.1 34
22:00 1014 29.94 843 24.89 21.3 70.3 26 1 33.8
22:05 1014 29.94 843 24.89 21.4 70.4 25 0.5 32.9
22:10 1014 29.94 843 24.89 21.7 71 25 0.8 33.4
22:15 1014 29.94 843 24.89 21.7 71 24 0.6 33
22:20 1014 29.94 843 24.89 21.5 70.8 27 1.9 35.5
22:25 1014 29.94 843 24.89 20.9 69.5 26 1 33.8
22:30 1014 29.94 843 24.89 20.9 69.7 26 0.8 33.4
22:35 1014 29.94 843 24.89 21.4 70.5 25 0.6 33
22:40 1014 29.94 843 24.89 21.9 71.4 23 0.2 32.4
22:45 1014 29.94 843 24.89 21.9 71.3 24 0.7 33.2
22:50 1014 29.94 843 24.89 21.4 70.5 26 1.1 34
22:55 1013 29.91 843 24.89 21.7 71 25 0.8 33.4
23:00 1013 29.91 843 24.89 21.8 71.3 24 0.8 33.5
23:05 1013 29.91 843 24.89 21.8 71.2 23 0.1 32.2
23:10 1013 29.91 843 24.89 22.6 72.6 23 0.5 32.8
23:15 1013 29.91 843 24.89 22.8 73.1 25 1.9 35.4
23:20 1013 29.91 843 24.89 23.1 73.6 21 -0 31.9
23:25 1013 29.91 843 24.89 23.4 74.1 22 0.9 33.6
23:30 1013 29.91 843 24.89 23.2 73.7 24 1.5 34.7
23:35 1013 29.91 843 24.89 23.1 73.6 23 1.3 34.3
23:40 1013 29.91 843 24.89 22.9 73.3 22 0.6 33
23:45 1013 29.91 842 24.86 22.5 72.4 23 0.8 33.5
23:50 1013 29.91 842 24.86 22.2 72 22 -0.1 31.9
23:55 1013 29.91 842 24.86 22.3 72.2 22 -0.2 31.6
24:00 1013 29.91 842 24.86 22.6 72.7 22 -0.3 31.5
00:05 1013 29.91 842 24.86 22.9 73.2 20 -1.2 29.8
00:10 1013 29.91 842 24.86 23 73.4 21 -0.6 30.9
00:15 1013 29.91 842 24.86 22.9 73.3 20 -1 30.2
00:20 1013 29.91 842 24.86 22.9 73.1 21 -0.7 30.8
00:25 1013 29.91 842 24.86 22.4 72.3 22 -0.5 31.1
00:30 1013 29.91 842 24.86 21.9 71.3 25 1 33.8
00:35 1013 29.91 842 24.86 21.1 69.9 28 2.2 35.9
00:40 1013 29.91 842 24.86 20.1 68.1 28 1.1 34.1
00:45 1013 29.91 842 24.86 19.6 67.2 31 2 35.6
00:50 1013 29.91 842 24.86 19.5 67 30 1.7 35
00:55 1013 29.91 843 24.89 19 66.3 31 1.5 34.6
01:00 1013 29.91 842 24.86 19.3 66.8 29 0.9 33.6
01:05 1013 29.91 843 24.89 19.2 66.6 31 1.9 35.5
01:10 1013 29.91 843 24.89 18.9 66 32 1.8 35.3
01:15 1013 29.91 843 24.89 18.8 65.8 32 2.1 35.7
01:20 1013 29.91 843 24.89 18.8 65.9 32 2.1 35.8
01:25 1013 29.91 843 24.89 19.2 66.6 29 0.9 33.6
01:30 1013 29.91 843 24.89 19.3 66.7 29 1 33.7
01:35 1014 29.94 843 24.89 19.1 66.3 28 0.3 32.5
01:40 1014 29.94 843 24.89 19.5 67.2 28 0.7 33.3
01:45 1014 29.94 843 24.89 19.4 67 28 0.7 33.3
01:50 1014 29.94 843 24.89 19.5 67.1 28 0.7 33.3
01:55 1014 29.94 843 24.89 19.6 67.3 28 0.5 32.9
02:00 1014 29.94 843 24.89 19.6 67.3 27 0.4 32.8
02:05 1014 29.94 843 24.89 19.5 67 28 0.8 33.4
02:10 1014 29.94 843 24.89 19.2 66.5 27 -0.1 31.9
02:15 1014 29.94 843 24.89 19.6 67.3 26 -0.2 31.7
02:20 1014 29.94 843 24.89 19.8 67.7 26 0.2 32.3
02:25 1014 29.94 843 24.89 19.7 67.5 27 0.4 32.7
02:30 1014 29.94 843 24.89 19.4 66.9 30 1.7 35
02:35 1014 29.94 843 24.89 19.3 66.7 27 0.2 32.3
02:40 1014 29.94 843 24.89 19.6 67.2 29 1.3 34.3
02:45 1014 29.94 843 24.89 19.1 66.4 29 0.9 33.6
02:50 1014 29.94 843 24.89 18.9 65.9 28 0.1 32.1
02:55 1014 29.94 843 24.89 19.1 66.3 28 0.2 32.4
03:00 1014 29.94 843 24.89 18.7 65.6 29 0.6 33
03:05 1014 29.94 843 24.89 18 64.3 33 1.7 35.1
03:10 1014 29.94 843 24.89 17.2 62.9 33 1 33.7
03:15 1014 29.94 843 24.89 17.3 63.1 33 0.8 33.4
03:20 1014 29.94 843 24.89 17.5 63.5 29 -0.5 31.1
03:25 1014 29.94 843 24.89 17.6 63.7 34 1.6 34.9
03:30 1014 29.94 843 24.89 17.1 62.7 36 1.9 35.3
03:35 1014 29.94 843 24.89 16.5 61.6 34 0.7 33.3
03:40 1014 29.94 843 24.89 16.3 61.3 35 0.8 33.4
03:45 1014 29.94 843 24.89 16.3 61.4 34 0.4 32.7
03:50 1014 29.94 843 24.89 16.3 61.3 33 0.2 32.4
03:55 1014 29.94 843 24.89 16.1 60.9 36 1 33.8
04:00 1014 29.94 843 24.89 15.7 60.3 38 1.4 34.5
04:05 1014 29.94 843 24.89 15.5 59.9 33 -0.7 30.8
04:10 1014 29.94 843 24.89 15.9 60.6 43 3.5 38.3
04:15 1014 29.94 843 24.89 14.9 58.8 37 0.6 33
04:20 1014 29.94 843 24.89 15.1 59.2 43 2.8 37
04:25 1014 29.94 843 24.89 14 57.3 42 1.3 34.4
04:30 1014 29.94 843 24.89 14.8 58.6 36 -0.1 31.9
04:35 1014 29.94 843 24.89 15.2 59.3 40 1.8 35.2
04:40 1014 29.94 843 24.89 14.6 58.2 34 -0.8 30.5
04:45 1014 29.94 843 24.89 15.2 59.4 40 1.7 35
04:50 1014 29.94 843 24.89 14.7 58.4 35 -0.4 31.3
04:55 1014 29.94 843 24.89 15 59 36 -0 31.9
05:00 1014 29.94 843 24.89 15.1 59.1 35 -0.3 31.4
05:05 1014 29.94 843 24.89 15.2 59.4 36 0.2 32.4
05:10 1014 29.94 843 24.89 15.1 59.1 34 -0.5 31
05:15 1014 29.94 843 24.89 15.3 59.6 36 0.2 32.4
05:20 1014 29.94 843 24.89 15.2 59.4 34 -0.6 30.9
05:25 1014 29.94 843 24.89 15.1 59.1 36 0.3 32.5
05:30 1014 29.94 843 24.89 14.9 58.7 35 -0.5 31.1
05:35 1014 29.94 843 24.89 15.4 59.7 33 -0.5 31
05:40 1014 29.94 843 24.89 15.3 59.6 35 -0.1 31.8
05:45 1014 29.94 843 24.89 15.3 59.6 34 -0.3 31.5
05:50 1014 29.94 843 24.89 15.2 59.3 36 0.4 32.7
05:55 1014 29.94 843 24.89 14.9 58.9 35 -0.1 31.8
06:00 1013 29.91 843 24.89 15.1 59.2 33 -0.8 30.5
06:05 1013 29.91 843 24.89 15.2 59.3 35 -0 32
06:10 1013 29.91 843 24.89 15.3 59.6 34 -0.2 31.6
06:15 1013 29.91 843 24.89 15.3 59.6 34 -0.2 31.7
06:20 1013 29.91 843 24.89 15.6 60 33 -0.5 31.1
06:25 1013 29.91 843 24.89 15.9 60.5 36 0.7 33.3
06:30 1013 29.91 843 24.89 15.4 59.7 35 0.2 32.4
06:35 1013 29.91 843 24.89 15.7 60.2 35 0.3 32.5
06:40 1013 29.91 843 24.89 15.8 60.5 35 0.4 32.7
06:45 1013 29.91 843 24.89 16 60.7 36 1 33.7
06:50 1013 29.91 843 24.89 16 60.7 36 1 33.8
06:55 1013 29.91 843 24.89 16.2 61.1 35 0.8 33.5
07:00 1013 29.91 843 24.89 16.5 61.6 36 1.4 34.5
07:05 1013 29.91 843 24.89 16.2 61.2 37 1.7 35.1
07:10 1013 29.91 842 24.86 16.9 62.3 34 1.1 33.9
07:15 1013 29.91 843 24.89 17.1 62.8 34 1.5 34.6
07:20 1013 29.91 842 24.86 17.4 63.4 33 1.3 34.3
07:25 1013 29.91 843 24.89 17.5 63.5 35 2.1 35.7
07:30 1013 29.91 843 24.89 17.6 63.6 34 1.7 35
07:35 1013 29.91 843 24.89 17.8 64 33 1.3 34.4
07:40 1013 29.91 843 24.89 18.7 65.7 32 1.7 35.1
07:45 1013 29.91 842 24.86 19 66.1 30 1.2 34.2
07:50 1013 29.91 843 24.89 19.6 67.2 32 2.4 36.4
07:55 1013 29.91 843 24.89 19.7 67.5 31 2.3 36.1
08:00 1013 29.91 843 24.89 19.4 67 34 3.4 38.1
08:05 1013 29.91 843 24.89 19.3 66.8 32 2.2 36
08:10 1013 29.91 843 24.89 19.9 67.8 31 2.7 36.8
08:15 1013 29.91 843 24.89 20.1 68.1 32 2.8 37.1
08:20 1013 29.91 843 24.89 20.5 68.9 33 4 39.2
08:25 1013 29.91 843 24.89 20.8 69.5 31 3.3 38
08:30 1013 29.91 843 24.89 21.2 70.2 32 3.9 39
08:35 1014 29.94 843 24.89 21.7 71.1 33 4.9 40.9
08:40 1013 29.91 843 24.89 20.8 69.4 36 5.3 41.5
08:45 1014 29.94 843 24.89 19.7 67.4 35 3.8 38.8
08:50 1014 29.94 843 24.89 19.4 66.8 36 3.9 39
08:55 1014 29.94 843 24.89 19.9 67.8 33 3.5 38.3
09:00 1014 29.94 843 24.89 20.6 69.1 31 2.9 37.2
09:05 1014 29.94 843 24.89 20.4 68.6 32 3.4 38.2
09:10 1014 29.94 843 24.89 20.4 68.7 31 3.1 37.6
09:15 1014 29.94 843 24.89 20.3 68.6 32 3.2 37.7
09:20 1014 29.94 843 24.89 21.2 70.1 28 2 35.6
09:25 1014 29.94 843 24.89 20.9 69.6 30 3 37.4
09:30 1014 29.94 843 24.89 21.7 71 28 2.6 36.6
09:35 1014 29.94 843 24.89 22.7 72.8 26 2.4 36.4
09:40 1014 29.94 843 24.89 22.8 73 27 3 37.3
09:45 1014 29.94 843 24.89 23.3 73.9 30 4.9 40.8
09:50 1014 29.94 843 24.89 23.5 74.2 27 3.7 38.7
09:55 1013 29.91 843 24.89 23.9 75.1 28 4.3 39.8
10:00 1013 29.91 843 24.89 24.3 75.8 30 5.8 42.4
10:05 1013 29.91 843 24.89 23.7 74.7 31 6 42.9
10:10 1013 29.91 843 24.89 23.6 74.5 29 4.8 40.6
10:15 1013 29.91 842 24.86 24.8 76.7 28 5.5 41.9
10:20 1013 29.91 842 24.86 25.1 77.2 28 5.4 41.7
10:25 1013 29.91 842 24.86 26.5 79.6 28 6.6 43.9
10:30 1013 29.91 842 24.86 25.8 78.5 28 6 42.8
10:35 1013 29.91 842 24.86 25.4 77.8 29 6.2 43.1
10:40 1013 29.91 842 24.86 26.7 80 26 5.9 42.6
10:45 1013 29.91 842 24.86 26.8 80.3 26 6.1 42.9
10:50 1013 29.91 843 24.89 26.1 79 27 6 42.7
10:55 1013 29.91 843 24.89 26 78.9 28 6.4 43.6
11:00 1013 29.91 843 24.89 25.7 78.3 27 5.5 42
11:05 1013 29.91 843 24.89 25.9 78.5 26 5.4 41.7
11:10 1013 29.91 843 24.89 25.8 78.5 28 6.1 42.9
11:15 1013 29.91 842 24.86 25.6 78 27 5.3 41.6
11:20 1013 29.91 842 24.86 26.2 79.1 27 5.7 42.3
11:25 1013 29.91 842 24.86 26.4 79.5 26 5.4 41.7
11:30 1013 29.91 842 24.86 27.7 81.9 24 5.5 41.9
11:35 1013 29.91 842 24.86 27.8 82 26 6.6 43.9
11:40 1013 29.91 842 24.86 27.4 81.2 25 6.1 42.9
11:45 1013 29.91 842 24.86 28.1 82.5 24 6.1 43
11:50 1013 29.91 842 24.86 29 84.1 24 6.9 44.4
11:55 1013 29.91 842 24.86 28.5 83.3 25 6.9 44.5
12:00 1013 29.91 842 24.86 28.2 82.8 25 6.4 43.6
12:05 1013 29.91 842 24.86 28.9 84 22 5.6 42.1
12:10 1013 29.91 842 24.86 29.6 85.3 24 7.1 44.7
12:15 1013 29.91 842 24.86 29 84.1 24 6.8 44.3
12:20 1013 29.91 842 24.86 28.9 84 22 5.4 41.7
12:25 1013 29.91 842 24.86 29.9 85.9 22 6.6 43.8
12:30 1013 29.91 842 24.86 29.3 84.8 23 6.6 43.8
12:35 1013 29.91 842 24.86 29.6 85.2 20 4.6 40.3
12:40 1013 29.91 842 24.86 29.9 85.9 20 5.1 41.1
12:45 1013 29.91 842 24.86 29.8 85.7 21 5.7 42.2
12:50 1013 29.91 842 24.86 30.1 86.1 23 7.1 44.8
12:55 1013 29.91 842 24.86 29.6 85.2 23 6.8 44.3
13:00 1013 29.91 842 24.86 29.7 85.4 21 5.6 42
13:05 1013 29.91 842 24.86 29.7 85.4 19 4.3 39.7
13:10 1013 29.91 842 24.86 29.7 85.4 20 4.9 40.9
13:15 1013 29.91 842 24.86 29.7 85.4 20 5 41
13:20 1013 29.91 842 24.86 29.8 85.6 20 4.7 40.4
13:25 1013 29.91 842 24.86 29.7 85.4 21 5.4 41.6
13:30 1013 29.91 842 24.86 29.3 84.8 18 2.8 37
13:35 1013 29.91 842 24.86 29.3 84.7 14 -1.1 30
13:40 1013 29.91 842 24.86 29.8 85.7 10 -4.1 24.6
13:45 1013 29.91 842 24.86 30.6 87.1 12 -2 28.4
13:50 1013 29.91 842 24.86 30.5 86.8 11 -2.6 27.3
13:55 1013 29.91 842 24.86 30.3 86.5 11 -2.6 27.3
14:00 1013 29.91 842 24.86 30.2 86.3 12 -2.1 28.2
14:05 1013 29.91 842 24.86 30.3 86.6 12 -2.5 27.6
14:10 1013 29.91 842 24.86 30.4 86.7 12 -2.2 28.1
14:15 1013 29.91 842 24.86 30.5 86.9 12 -1.5 29.3
14:20 1013 29.91 842 24.86 30.6 87.1 11 -2.6 27.3
14:25 1013 29.91 842 24.86 30.4 86.8 11 -3.3 26.1
14:30 1013 29.91 842 24.86 30.1 86.2 11 -3.2 26.2
14:35 1013 29.91 842 24.86 29.9 85.8 11 -4 24.9
14:40 1013 29.91 842 24.86 29.9 85.9 11 -3.5 25.7
14:45 1013 29.91 842 24.86 30 86 12 -2 28.4
14:50 1013 29.91 842 24.86 29.6 85.2 12 -3.1 26.5
14:55 1013 29.91 842 24.86 29.8 85.7 12 -1.9 28.6
15:00 1013 29.91 842 24.86 30.1 86.2 12 -2 28.3
15:05 1013 29.91 842 24.86 30.7 87.3 12 -1.7 28.9
15:10 1013 29.91 842 24.86 30.6 87.1 11 -2.7 27.2
15:15 1013 29.91 842 24.86 30.5 86.9 11 -2.4 27.6
15:20 1013 29.91 842 24.86 30.4 86.6 11 -2.6 27.4
15:25 1013 29.91 842 24.86 30.2 86.3 12 -2.2 28
15:30 1013 29.91 842 24.86 30 86 13 -1 30.2
15:35 1013 29.91 842 24.86 30.5 86.9 12 -1.8 28.8
15:40 1013 29.91 842 24.86 30.3 86.6 13 -1.1 30.1
15:45 1013 29.91 842 24.86 30.8 87.4 12 -1.7 28.9
15:50 1013 29.91 842 24.86 31.1 87.9 13 -0.3 31.4
15:55 1013 29.91 842 24.86 31.3 88.3 13 -0.5 31.2
16:00 1013 29.91 842 24.86 30.9 87.7 13 -0.6 31
16:05 1013 29.91 842 24.86 30.9 87.6 13 -0.4 31.2
16:10 1013 29.91 842 24.86 30.7 87.3 14 0.7 33.3
16:15 1013 29.91 842 24.86 30.5 86.8 14 0.8 33.4
16:20 1013 29.91 842 24.86 30.8 87.5 14 0.9 33.6
16:25 1013 29.91 842 24.86 31.1 88 13 -0 32
16:30 1013 29.91 842 24.86 31.1 88 12 -1.2 29.8
16:35 1013 29.91 842 24.86 31.1 87.9 13 -0.6 31
16:40 1013 29.91 842 24.86 31.1 87.9 12 -1.3 29.6
16:45 1013 29.91 842 24.86 31.1 88 11 -1.9 28.6
16:50 1013 29.91 842 24.86 31 87.8 12 -1.5 29.2
16:55 1013 29.91 842 24.86 31.3 88.4 12 -0.9 30.3
17:00 1013 29.91 842 24.86 31 87.7 12 -1.8 28.7
17:05 1013 29.91 842 24.86 30.9 87.6 12 -1.8 28.8
17:10 1013 29.91 842 24.86 30.9 87.7 11 -2.3 27.9
17:15 1013 29.91 842 24.86 31 87.8 12 -1.1 30
17:20 1013 29.91 842 24.86 30.7 87.3 12 -1.3 29.7
17:25 1013 29.91 842 24.86 30.7 87.3 12 -1.4 29.5
17:30 1013 29.91 842 24.86 30.5 87 11 -2.4 27.6
17:35 1013 29.91 842 24.86 30.4 86.7 11 -3.5 25.6
17:40 1013 29.91 842 24.86 30.2 86.3 12 -2.6 27.3
17:45 1013 29.91 842 24.86 30.2 86.4 11 -2.7 27.2
17:50 1013 29.91 842 24.86 30.3 86.5 11 -2.9 26.8
17:55 1013 29.91 842 24.86 29.9 85.9 12 -2.7 27.1
18:00 1013 29.91 842 24.86 29.7 85.5 12 -2.2 28.1
18:05 1013 29.91 842 24.86 29.5 85 12 -2.2 28
18:10 1013 29.91 842 24.86 29 84.1 13 -1.8 28.7
18:15 1013 29.91 842 24.86 28.8 83.8 13 -2.2 28
18:20 1013 29.91 843 24.89 28.7 83.6 12 -3 26.6
18:25 1013 29.91 843 24.89 28.7 83.6 13 -2.6 27.2
18:30 1013 29.91 843 24.89 28.8 83.8 12 -2.8 26.9
18:35 1013 29.91 843 24.89 28.6 83.5 12 -2.8 26.9
18:40 1014 29.94 843 24.89 28.4 83.1 13 -2.2 28
18:45 1014 29.94 843 24.89 28.2 82.8 13 -2.3 27.9
18:50 1014 29.94 843 24.89 28 82.3 14 -1.7 29
18:55 1014 29.94 843 24.89 27.6 81.7 15 -1.4 29.5
19:00 1014 29.94 843 24.89 27.4 81.3 15 -1.2 29.9
19:05 1014 29.94 843 24.89 27.3 81.1 14 -2.7 27.2
19:10 1014 29.94 843 24.89 27.6 81.7 15 -1.4 29.4
19:15 1014 29.94 843 24.89 27.1 80.7 14 -2 28.5
19:20 1014 29.94 843 24.89 26.9 80.3 15 -1.6 29
19:25 1014 29.94 843 24.89 26.9 80.5 17 0.5 32.8
19:30 1014 29.94 843 24.89 26.5 79.6 17 0.1 32.2
19:35 1014 29.94 843 24.89 26.1 79 19 1.1 34.1
19:40 1014 29.94 843 24.89 25.6 78.1 19 0.6 33.1
19:45 1014 29.94 843 24.89 25.7 78.2 19 0.4 32.7
19:50 1014 29.94 843 24.89 25.8 78.4 19 0.4 32.7
19:55 1014 29.94 843 24.89 25.9 78.7 17 -1.1 30
20:00 1014 29.94 843 24.89 26.1 79 16 -1.7 28.9
20:05 1014 29.94 843 24.89 26.2 79.2 15 -2 28.4
20:10 1014 29.94 843 24.89 26.3 79.3 15 -2 28.4
20:15 1014 29.94 843 24.89 26 78.9 15 -2.1 28.2
20:20 1014 29.94 843 24.89 26 78.7 17 -0.9 30.5
20:25 1014 29.94 843 24.89 25.1 77.2 19 0.2 32.3
20:30 1014 29.94 843 24.89 24.4 76 19 -0.1 31.8
20:35 1014 29.94 844 24.92 24.3 75.8 20 -0.1 31.8
20:40 1015 29.97 844 24.92 24.4 76 20 0.3 32.5
20:45 1014 29.94 844 24.92 24.7 76.5 17 -1.7 28.9
20:50 1014 29.94 843 24.89 25.2 77.3 18 -0.2 31.6
20:55 1014 29.94 843 24.89 25.4 77.6 18 -0.7 30.7
21:00 1014 29.94 844 24.92 25.3 77.6 17 -1.2 29.8
21:05 1014 29.94 844 24.92 25.6 78.1 16 -2.2 28
21:10 1014 29.94 844 24.92 25.7 78.2 16 -1.4 29.5
21:15 1014 29.94 844 24.92 25.5 77.9 16 -1.6 29.2
21:20 1014 29.94 844 24.92 25.5 78 16 -1.5 29.2
21:25 1014 29.94 844 24.92 25.4 77.7 17 -0.9 30.4
21:30 1014 29.94 843 24.89 25.1 77.2 17 -1.1 30
21:35 1014 29.94 843 24.89 25 77.1 18 -0.9 30.4
21:40 1014 29.94 843 24.89 24.6 76.3 20 0.3 32.6
21:45 1014 29.94 844 24.92 23.8 74.9 21 0.7 33.3
21:50 1014 29.94 844 24.92 23.6 74.5 22 0.6 33.1
21:55 1014 29.94 844 24.92 23.8 74.8 21 0.3 32.5
22:00 1014 29.94 844 24.92 23.9 75 19 -0.8 30.5
22:05 1014 29.94 843 24.89 24 75.1 23 1.5 34.8
22:10 1014 29.94 843 24.89 23.1 73.5 27 3.5 38.3
22:15 1014 29.94 843 24.89 22.8 73 24 1.3 34.4
22:20 1014 29.94 844 24.92 22.9 73.2 24 1.6 34.8
22:25 1015 29.97 844 24.92 22.8 73.1 24 1.5 34.7
22:30 1015 29.97 844 24.92 22.8 73.1 25 1.9 35.4
22:35 1015 29.97 844 24.92 22.5 72.5 26 2.5 36.5
22:40 1015 29.97 844 24.92 22.1 71.8 28 2.9 37.2
22:45 1015 29.97 844 24.92 21.9 71.5 28 2.9 37.2
22:50 1015 29.97 844 24.92 21.8 71.2 29 3 37.5
22:55 1015 29.97 844 24.92 21.5 70.8 29 3.1 37.6
23:00 1015 29.97 844 24.92 21.5 70.7 29 2.8 37.1
23:05 1015 29.97 844 24.92 21.5 70.7 29 3 37.5
23:10 1015 29.97 844 24.92 21.6 70.8 30 3.6 38.4
23:15 1015 29.97 844 24.92 21.4 70.5 31 3.9 39
23:20 1015 29.97 844 24.92 21.2 70.2 31 3.8 38.9
23:25 1015 29.97 844 24.92 21.1 70 31 3.4 38.2
23:30 1015 29.97 844 24.92 20.9 69.7 30 2.8 37.1
23:35 1015 29.97 844 24.92 21 69.7 32 3.9 39
23:40 1015 29.97 844 24.92 20.9 69.7 29 2.6 36.6
23:45 1014 29.94 844 24.92 21.1 69.9 27 1.8 35.2
23:50 1015 29.97 844 24.92 21.6 70.9 27 1.8 35.2
23:55 1015 29.97 844 24.92 21.6 71 27 2.3 36.1
24:00 1015 29.97 844 24.92 21.5 70.6 27 1.9 35.5